createdAt,value
2022-11-27T00:01:01.746Z,18.50
2022-11-27T00:03:29.123Z,12.47
2022-11-27T00:05:57.473Z,13.20
2022-11-27T00:08:27.747Z,12.77
2022-11-27T00:10:54.934Z,14.67
2022-11-27T00:13:22.119Z,12.17
2022-11-27T00:15:49.603Z,11.97
2022-11-27T00:18:16.930Z,11.47
2022-11-27T00:20:44.211Z,12.47
2022-11-27T00:23:11.411Z,12.63
2022-11-27T00:25:38.621Z,13.47
2022-11-27T00:28:05.795Z,15.53
2022-11-27T00:30:33.034Z,16.20
2022-11-27T00:33:00.480Z,11.87
2022-11-27T00:35:27.736Z,10.40
2022-11-27T00:37:54.911Z,13.67
2022-11-27T00:40:22.098Z,12.90
2022-11-27T00:42:49.285Z,13.23
2022-11-27T00:45:16.608Z,11.10
2022-11-27T00:47:43.750Z,11.20
2022-11-27T00:50:11.102Z,12.57
2022-11-27T00:52:38.338Z,13.00
2022-11-27T00:55:05.824Z,11.83
2022-11-27T00:57:32.980Z,10.57
2022-11-27T01:00:00.255Z,13.63
2022-11-27T01:02:27.591Z,13.73
2022-11-27T01:04:54.880Z,13.93
2022-11-27T01:07:22.169Z,11.63
2022-11-27T01:09:49.427Z,13.17
2022-11-27T01:12:16.581Z,13.20
2022-11-27T01:14:43.786Z,15.17
2022-11-27T01:17:10.990Z,14.67
2022-11-27T01:19:38.317Z,10.70
2022-11-27T01:22:05.507Z,14.70
2022-11-27T01:24:32.731Z,12.63
2022-11-27T01:26:59.971Z,14.90
2022-11-27T01:29:27.162Z,13.07
2022-11-27T01:31:54.424Z,14.43
2022-11-27T01:34:21.707Z,13.37
2022-11-27T01:36:49.008Z,14.20
2022-11-27T01:39:18.239Z,13.60
2022-11-27T01:41:45.695Z,14.17
2022-11-27T01:44:30.836Z,12.90
2022-11-27T01:47:06.023Z,12.97
2022-11-27T01:49:52.032Z,12.70
2022-11-27T01:52:24.763Z,12.87
2022-11-27T01:54:55.349Z,14.90
2022-11-27T01:57:27.949Z,15.67
2022-11-27T01:59:55.940Z,14.27
2022-11-27T02:02:23.253Z,15.67
2022-11-27T02:04:50.623Z,11.77
2022-11-27T02:07:17.943Z,13.10
2022-11-27T02:09:45.409Z,14.10
2022-11-27T02:12:25.549Z,15.63
2022-11-27T02:14:55.847Z,17.67
2022-11-27T02:17:41.895Z,16.47
2022-11-27T02:20:11.954Z,16.10
2022-11-27T02:22:39.318Z,12.17
2022-11-27T02:25:13.987Z,12.87
2022-11-27T02:27:50.668Z,15.23
2022-11-27T02:30:18.220Z,13.13
2022-11-27T02:33:14.767Z,12.70
2022-11-27T02:35:44.143Z,15.83
2022-11-27T02:38:16.958Z,14.50
2022-11-27T02:40:51.929Z,15.53
2022-11-27T02:43:21.468Z,13.63
2022-11-27T02:45:50.043Z,13.27
2022-11-27T02:48:19.680Z,13.00
2022-11-27T02:50:47.623Z,13.70
2022-11-27T02:53:31.409Z,11.87
2022-11-27T02:55:59.259Z,14.47
2022-11-27T02:58:28.273Z,13.37
2022-11-27T03:00:56.195Z,15.40
2022-11-27T03:03:25.595Z,13.20
2022-11-27T03:05:54.480Z,16.13
2022-11-27T03:08:48.298Z,13.73
2022-11-27T03:11:16.228Z,13.40
2022-11-27T03:13:45.433Z,13.73
2022-11-27T03:16:26.196Z,13.97
2022-11-27T03:19:02.463Z,12.20
2022-11-27T03:21:33.151Z,15.83
2022-11-27T03:24:00.430Z,12.43
2022-11-27T03:26:27.803Z,12.97
2022-11-27T03:28:55.952Z,14.93
2022-11-27T03:31:26.198Z,15.43
2022-11-27T03:33:53.541Z,14.23
2022-11-27T03:36:21.610Z,13.17
2022-11-27T03:38:49.788Z,13.80
2022-11-27T03:41:22.206Z,19.37
2022-11-27T03:43:58.448Z,13.73
2022-11-27T03:46:30.845Z,14.73
2022-11-27T03:48:58.022Z,16.60
2022-11-27T03:51:45.497Z,12.47
2022-11-27T03:54:17.916Z,14.53
2022-11-27T03:56:56.718Z,13.37
2022-11-27T03:59:26.137Z,12.90
2022-11-27T04:01:53.594Z,14.13
2022-11-27T04:04:20.878Z,12.83
2022-11-27T04:06:48.183Z,11.63
2022-11-27T04:09:15.372Z,12.73
2022-11-27T04:11:42.703Z,11.93
2022-11-27T04:14:09.927Z,14.93
2022-11-27T04:16:37.275Z,12.80
2022-11-27T04:19:04.513Z,15.17
2022-11-27T04:21:31.696Z,14.13
2022-11-27T04:23:58.989Z,12.83
2022-11-27T04:26:26.220Z,15.57
2022-11-27T04:28:53.405Z,16.20
2022-11-27T04:31:20.626Z,17.13
2022-11-27T04:33:47.970Z,15.20
2022-11-27T04:36:15.132Z,14.43
2022-11-27T04:38:42.292Z,16.17
2022-11-27T04:41:09.497Z,14.90
2022-11-27T04:43:36.691Z,15.43
2022-11-27T04:46:03.936Z,16.53
2022-11-27T04:48:31.144Z,18.67
2022-11-27T04:50:58.446Z,15.97
2022-11-27T04:53:25.664Z,13.97
2022-11-27T04:55:53.007Z,14.07
2022-11-27T04:58:20.162Z,16.27
2022-11-27T05:00:47.431Z,14.17
2022-11-27T05:03:14.950Z,15.50
2022-11-27T05:05:42.224Z,15.27
2022-11-27T05:08:09.387Z,13.50
2022-11-27T05:10:36.721Z,15.47
2022-11-27T05:13:03.894Z,14.60
2022-11-27T05:15:31.148Z,15.87
2022-11-27T05:17:58.375Z,17.90
2022-11-27T05:20:25.560Z,14.27
2022-11-27T05:22:52.976Z,17.57
2022-11-27T05:25:20.159Z,16.87
2022-11-27T05:27:47.427Z,13.03
2022-11-27T05:30:14.620Z,13.50
2022-11-27T05:32:41.841Z,11.03
2022-11-27T05:35:09.223Z,12.00
2022-11-27T05:37:36.485Z,10.53
2022-11-27T05:40:03.759Z,14.20
2022-11-27T05:42:30.995Z,14.77
2022-11-27T05:44:58.718Z,9.47
2022-11-27T05:47:26.012Z,11.87
2022-11-27T05:49:53.330Z,9.83
2022-11-27T05:52:20.489Z,9.67
2022-11-27T05:54:47.704Z,13.23
2022-11-27T05:57:14.927Z,8.63
2022-11-27T05:59:42.163Z,10.23
2022-11-27T06:02:09.419Z,9.37
2022-11-27T06:04:36.997Z,11.07
2022-11-27T06:07:04.230Z,11.33
2022-11-27T06:09:31.490Z,7.93
2022-11-27T06:11:58.860Z,16.27
2022-11-27T06:14:26.090Z,12.67
2022-11-27T06:16:53.366Z,9.10
2022-11-27T06:19:20.662Z,9.53
2022-11-27T06:21:47.935Z,14.40
2022-11-27T06:24:15.310Z,23.40
2022-11-27T06:26:43.150Z,10.40
2022-11-27T06:29:10.433Z,13.47
2022-11-27T06:31:37.782Z,14.13
2022-11-27T06:34:05.297Z,12.47
2022-11-27T06:36:34.534Z,17.10
2022-11-27T06:39:02.040Z,19.70
2022-11-27T06:41:29.382Z,10.60
2022-11-27T06:43:58.092Z,12.63
2022-11-27T06:46:25.776Z,10.00
2022-11-27T06:48:53.634Z,9.97
2022-11-27T06:51:22.584Z,14.90
2022-11-27T06:53:50.610Z,18.40
2022-11-27T06:56:19.101Z,12.57
2022-11-27T06:58:49.029Z,12.20
2022-11-27T07:01:17.512Z,12.40
2022-11-27T07:03:45.198Z,12.37
2022-11-27T07:06:15.066Z,11.60
2022-11-27T07:08:43.375Z,16.80
2022-11-27T07:11:15.305Z,12.80
2022-11-27T07:13:42.840Z,13.73
2022-11-27T07:16:11.008Z,15.00
2022-11-27T07:18:39.732Z,17.93
2022-11-27T07:21:07.101Z,19.27
2022-11-27T07:23:34.367Z,12.03
2022-11-27T07:26:05.839Z,23.10
2022-11-27T07:28:33.185Z,14.60
2022-11-27T07:31:01.095Z,16.53
2022-11-27T07:33:28.593Z,28.40
2022-11-27T07:36:09.535Z,29.53
2022-11-27T07:38:36.882Z,16.97
2022-11-27T07:41:04.678Z,12.73
2022-11-27T07:43:33.778Z,13.37
2022-11-27T07:46:12.263Z,14.40
2022-11-27T07:48:40.124Z,14.57
2022-11-27T07:51:07.859Z,12.17
2022-11-27T07:53:38.433Z,13.57
2022-11-27T07:56:06.695Z,42.63
2022-11-27T07:58:34.459Z,22.73
2022-11-27T08:01:01.792Z,32.47
2022-11-27T08:03:29.077Z,11.70
2022-11-27T08:05:56.319Z,14.13
2022-11-27T08:08:23.545Z,13.33
2022-11-27T08:10:50.760Z,14.27
2022-11-27T08:13:18.176Z,20.10
2022-11-27T08:15:46.151Z,17.03
2022-11-27T08:18:13.665Z,13.63
2022-11-27T08:20:40.972Z,13.60
2022-11-27T08:23:08.182Z,15.90
2022-11-27T08:25:35.477Z,16.13
2022-11-27T08:28:02.686Z,19.57
2022-11-27T08:30:29.951Z,14.03
2022-11-27T08:32:57.166Z,14.70
2022-11-27T08:35:24.654Z,17.37
2022-11-27T08:37:52.260Z,14.43
2022-11-27T08:40:19.666Z,16.30
2022-11-27T08:42:46.951Z,17.60
2022-11-27T08:45:14.250Z,18.10
2022-11-27T08:47:43.513Z,18.97
2022-11-27T08:50:11.013Z,19.63
2022-11-27T08:52:38.499Z,23.93
2022-11-27T08:55:05.951Z,21.13
2022-11-27T08:57:33.301Z,27.60
2022-11-27T09:00:00.636Z,21.43
2022-11-27T09:02:27.987Z,22.80
2022-11-27T09:04:55.300Z,20.30
2022-11-27T09:07:22.547Z,20.77
2022-11-27T09:09:49.886Z,20.50
2022-11-27T09:12:17.263Z,22.63
2022-11-27T09:14:44.472Z,21.97
2022-11-27T09:17:11.725Z,21.23
2022-11-27T09:19:39.027Z,19.33
2022-11-27T09:22:06.320Z,23.27
2022-11-27T09:24:33.597Z,22.93
2022-11-27T09:27:00.784Z,22.57
2022-11-27T09:29:28.011Z,19.63
2022-11-27T09:31:55.209Z,20.87
2022-11-27T09:34:22.581Z,22.00
2022-11-27T09:36:50.577Z,18.67
2022-11-27T09:39:19.604Z,20.87
2022-11-27T09:41:52.002Z,19.63
2022-11-27T09:44:25.041Z,23.53
2022-11-27T09:46:52.932Z,20.63
2022-11-27T09:49:27.097Z,21.40
2022-11-27T09:51:57.207Z,19.37
2022-11-27T09:54:27.338Z,20.93
2022-11-27T09:56:55.739Z,19.43
2022-11-27T09:59:24.635Z,21.13
2022-11-27T10:01:52.294Z,18.83
2022-11-27T10:04:21.136Z,18.80
2022-11-27T10:07:00.381Z,23.40
2022-11-27T10:09:33.756Z,20.77
2022-11-27T10:12:09.935Z,19.27
2022-11-27T10:14:46.611Z,18.50
2022-11-27T10:17:20.569Z,19.07
2022-11-27T10:19:54.093Z,17.93
2022-11-27T10:22:25.585Z,14.53
2022-11-27T10:25:13.349Z,14.80
2022-11-27T10:27:48.345Z,15.13
2022-11-27T10:30:16.557Z,11.97
2022-11-27T10:32:55.223Z,13.13
2022-11-27T10:35:24.452Z,11.57
2022-11-27T10:37:55.603Z,9.53
2022-11-27T10:40:46.022Z,12.10
2022-11-27T10:43:16.571Z,8.73
2022-11-27T10:45:49.649Z,19.13
2022-11-27T10:48:17.464Z,7.17
2022-11-27T10:50:46.018Z,7.63
2022-11-27T10:53:22.476Z,7.00
2022-11-27T10:56:08.896Z,5.67
2022-11-27T10:58:44.211Z,5.77
2022-11-27T11:01:12.989Z,6.03
2022-11-27T11:03:40.494Z,5.93
2022-11-27T11:06:22.171Z,6.60
2022-11-27T11:09:02.108Z,5.63
2022-11-27T11:11:29.471Z,5.60
2022-11-27T11:13:57.045Z,6.60
2022-11-27T11:16:34.797Z,6.30
2022-11-27T11:19:02.884Z,5.57
2022-11-27T11:21:33.956Z,4.23
2022-11-27T11:24:02.584Z,5.63
2022-11-27T11:26:31.831Z,5.03
2022-11-27T11:29:00.647Z,4.63
2022-11-27T11:31:34.192Z,5.27
2022-11-27T11:34:03.724Z,4.70
2022-11-27T11:36:31.310Z,6.07
2022-11-27T11:38:59.049Z,6.40
2022-11-27T11:41:36.673Z,6.00
2022-11-27T11:44:04.745Z,5.10
2022-11-27T11:46:33.774Z,5.63
2022-11-27T11:49:24.129Z,6.53
2022-11-27T11:52:00.324Z,5.90
2022-11-27T11:54:37.699Z,5.77
2022-11-27T11:57:06.837Z,5.30
2022-11-27T11:59:43.763Z,5.97
2022-11-27T12:02:18.900Z,6.27
2022-11-27T12:05:00.120Z,5.97
2022-11-27T12:07:33.639Z,5.57
2022-11-27T12:10:05.525Z,5.10
2022-11-27T12:12:42.246Z,4.20
2022-11-27T12:15:19.663Z,6.20
2022-11-27T12:18:02.001Z,4.27
2022-11-27T12:20:34.576Z,5.03
2022-11-27T12:23:08.083Z,4.77
2022-11-27T12:25:40.192Z,6.27
2022-11-27T12:28:10.741Z,5.10
2022-11-27T12:30:37.950Z,4.87
2022-11-27T12:33:07.889Z,5.37
2022-11-27T12:35:39.567Z,4.50
2022-11-27T12:38:36.591Z,4.40
2022-11-27T12:41:04.360Z,5.07
2022-11-27T12:43:38.561Z,6.43
2022-11-27T12:46:12.271Z,6.40
2022-11-27T12:48:46.998Z,4.93
2022-11-27T12:51:21.792Z,5.87
2022-11-27T12:54:15.519Z,5.40
2022-11-27T12:56:45.915Z,5.10
2022-11-27T12:59:17.376Z,7.93
2022-11-27T13:01:47.936Z,7.50
2022-11-27T13:04:27.538Z,6.83
2022-11-27T13:07:06.864Z,5.53
2022-11-27T13:09:43.703Z,4.63
2022-11-27T13:12:14.547Z,6.77
2022-11-27T13:14:42.959Z,6.93
2022-11-27T13:17:15.696Z,5.37
2022-11-27T13:19:46.067Z,6.47
2022-11-27T13:22:15.446Z,5.97
2022-11-27T13:24:43.076Z,5.03
2022-11-27T13:27:14.891Z,5.60
2022-11-27T13:29:55.933Z,8.30
2022-11-27T13:32:24.738Z,5.73
2022-11-27T13:35:22.011Z,4.53
2022-11-27T13:38:09.574Z,5.77
2022-11-27T13:40:44.384Z,5.87
2022-11-27T13:43:33.067Z,8.33
2022-11-27T13:46:08.570Z,7.93
2022-11-27T13:48:37.725Z,6.23
2022-11-27T13:51:06.769Z,6.27
2022-11-27T13:53:36.438Z,6.63
2022-11-27T13:56:04.601Z,8.17
2022-11-27T13:58:33.342Z,8.30
2022-11-27T14:01:12.763Z,6.40
2022-11-27T14:03:40.214Z,7.10
2022-11-27T14:06:27.847Z,6.43
2022-11-27T14:08:58.469Z,7.20
2022-11-27T14:11:30.350Z,6.57
2022-11-27T14:13:58.291Z,7.20
2022-11-27T14:16:30.394Z,7.17
2022-11-27T14:19:00.020Z,6.90
2022-11-27T14:21:39.256Z,6.80
2022-11-27T14:24:26.555Z,7.33
2022-11-27T14:26:54.655Z,6.73
2022-11-27T14:29:22.681Z,7.57
2022-11-27T14:32:00.446Z,7.53
2022-11-27T14:34:34.785Z,7.77
2022-11-27T14:37:02.019Z,7.87
2022-11-27T14:39:37.069Z,7.43
2022-11-27T14:42:05.716Z,9.13
2022-11-27T14:44:33.247Z,7.47
2022-11-27T14:47:02.148Z,10.40
2022-11-27T14:49:30.568Z,8.87
2022-11-27T14:52:00.782Z,9.63
2022-11-27T14:54:33.907Z,8.00
2022-11-27T14:57:01.255Z,7.53
2022-11-27T14:59:28.511Z,7.37
2022-11-27T15:02:22.261Z,7.40
2022-11-27T15:05:01.956Z,8.43
2022-11-27T15:07:30.581Z,9.20
2022-11-27T15:09:59.302Z,8.07
2022-11-27T15:12:29.163Z,8.93
2022-11-27T15:15:05.148Z,8.23
2022-11-27T15:17:36.954Z,7.60
2022-11-27T15:20:13.429Z,9.20
2022-11-27T15:22:40.838Z,9.77
2022-11-27T15:25:08.881Z,8.97
2022-11-27T15:27:54.226Z,11.63
2022-11-27T15:30:24.879Z,8.13
2022-11-27T15:32:53.363Z,11.83
2022-11-27T15:35:38.554Z,8.97
2022-11-27T15:38:09.965Z,21.40
2022-11-27T15:40:38.993Z,11.40
2022-11-27T15:43:16.011Z,11.33
2022-11-27T15:45:44.421Z,11.53
2022-11-27T15:48:15.645Z,8.93
2022-11-27T15:50:46.886Z,12.23
2022-11-27T15:53:18.597Z,10.40
2022-11-27T15:55:45.960Z,11.23
2022-11-27T15:58:13.227Z,11.30
2022-11-27T16:00:40.841Z,11.33
2022-11-27T16:03:08.107Z,10.57
2022-11-27T16:05:36.767Z,9.00
2022-11-27T16:08:05.355Z,10.40
2022-11-27T16:10:32.677Z,8.07
2022-11-27T16:12:59.978Z,9.57
2022-11-27T16:15:31.588Z,9.93
2022-11-27T16:18:00.274Z,7.80
2022-11-27T16:20:28.123Z,12.47
2022-11-27T16:22:55.624Z,10.40
2022-11-27T16:25:22.857Z,9.97
2022-11-27T16:27:50.206Z,9.17
2022-11-27T16:30:19.973Z,9.73
2022-11-27T16:32:48.478Z,11.20
2022-11-27T16:35:15.705Z,9.30
2022-11-27T16:37:44.490Z,10.27
2022-11-27T16:40:11.991Z,9.20
2022-11-27T16:42:39.558Z,12.00
2022-11-27T16:45:07.373Z,9.00
2022-11-27T16:47:34.660Z,8.73
2022-11-27T16:50:02.711Z,9.93
2022-11-27T16:52:31.041Z,11.00
2022-11-27T16:54:58.494Z,9.37
2022-11-27T16:57:25.886Z,11.53
2022-11-27T16:59:53.330Z,10.57
2022-11-27T17:02:20.779Z,8.90
2022-11-27T17:04:48.141Z,9.30
2022-11-27T17:07:15.532Z,9.47
2022-11-27T17:09:42.811Z,9.53
2022-11-27T17:12:10.096Z,10.80
2022-11-27T17:14:38.625Z,11.87
2022-11-27T17:17:06.665Z,10.37
2022-11-27T17:19:36.012Z,9.90
2022-11-27T17:22:03.667Z,11.27
2022-11-27T17:24:35.968Z,9.70
2022-11-27T17:27:06.220Z,11.27
2022-11-27T17:29:35.923Z,10.93
2022-11-27T17:32:04.024Z,12.70
2022-11-27T17:34:33.116Z,11.87
2022-11-27T17:37:00.527Z,9.43
2022-11-27T17:39:27.758Z,9.93
2022-11-27T17:41:55.056Z,9.13
2022-11-27T17:44:22.300Z,10.27
2022-11-27T17:46:50.599Z,10.87
2022-11-27T17:49:19.735Z,10.23
2022-11-27T17:51:49.508Z,9.90
2022-11-27T17:54:18.336Z,9.97
2022-11-27T17:56:51.123Z,10.57
2022-11-27T17:59:19.586Z,13.37
2022-11-27T18:01:48.505Z,10.63
2022-11-27T18:04:16.345Z,10.93
2022-11-27T18:06:43.785Z,33.70
2022-11-27T18:09:11.624Z,17.13
2022-11-27T18:11:39.693Z,10.40
2022-11-27T18:14:07.146Z,8.63
2022-11-27T18:16:36.372Z,10.20
2022-11-27T18:19:05.370Z,14.07
2022-11-27T18:21:51.436Z,9.50
2022-11-27T18:24:23.993Z,11.50
2022-11-27T18:27:08.867Z,10.67
2022-11-27T18:29:37.232Z,10.63
2022-11-27T18:32:04.858Z,11.57
2022-11-27T18:34:32.301Z,12.63
2022-11-27T18:37:00.715Z,12.60
2022-11-27T18:39:28.561Z,10.30
2022-11-27T18:41:55.892Z,14.37
2022-11-27T18:44:23.367Z,12.67
2022-11-27T18:46:50.863Z,12.23
2022-11-27T18:49:18.876Z,12.83
2022-11-27T18:51:46.960Z,13.50
2022-11-27T18:54:14.238Z,18.23
2022-11-27T18:56:41.513Z,15.87
2022-11-27T18:59:09.496Z,16.73
2022-11-27T19:01:42.216Z,21.20
2022-11-27T19:04:10.647Z,17.03
2022-11-27T19:06:38.576Z,17.80
2022-11-27T19:09:06.412Z,18.57
2022-11-27T19:11:34.857Z,20.67
2022-11-27T19:14:06.573Z,20.87
2022-11-27T19:16:42.062Z,18.30
2022-11-27T19:19:22.403Z,20.13
2022-11-27T19:21:56.665Z,19.73
2022-11-27T19:24:23.913Z,21.60
2022-11-27T19:26:54.334Z,19.27
2022-11-27T19:29:21.712Z,21.30
2022-11-27T19:31:49.053Z,23.10
2022-11-27T19:34:16.564Z,23.00
2022-11-27T19:36:43.972Z,22.10
2022-11-27T19:39:14.511Z,25.03
2022-11-27T19:41:43.233Z,21.37
2022-11-27T19:44:11.642Z,24.90
2022-11-27T19:46:39.271Z,22.73
2022-11-27T19:49:13.572Z,24.23
2022-11-27T19:51:40.910Z,23.77
2022-11-27T19:56:54.903Z,24.17
2022-11-27T19:59:25.898Z,20.13
2022-11-27T20:01:55.152Z,22.67
2022-11-27T20:04:27.196Z,25.60
2022-11-27T20:06:54.816Z,24.00
2022-11-27T20:09:22.170Z,23.47
2022-11-27T20:11:49.730Z,24.00
2022-11-27T20:14:17.515Z,22.63
2022-11-27T20:16:45.253Z,20.20
2022-11-27T20:19:12.891Z,26.03
2022-11-27T20:21:41.981Z,20.23
2022-11-27T20:24:09.251Z,21.47
2022-11-27T20:26:41.280Z,21.27
2022-11-27T20:29:10.930Z,20.93
2022-11-27T20:31:38.389Z,23.07
2022-11-27T20:34:07.090Z,23.33
2022-11-27T20:36:35.521Z,21.37
2022-11-27T20:39:03.073Z,26.43
2022-11-27T20:41:30.962Z,22.50
2022-11-27T20:43:59.825Z,23.07
2022-11-27T20:46:28.696Z,22.83
2022-11-27T20:48:57.012Z,21.63
2022-11-27T20:51:28.434Z,21.97
2022-11-27T20:53:57.174Z,24.10
2022-11-27T20:56:24.571Z,23.37
2022-11-27T20:58:52.064Z,20.93
2022-11-27T21:01:20.978Z,25.73
2022-11-27T21:03:50.072Z,23.43
2022-11-27T21:06:18.419Z,27.10
2022-11-27T21:08:45.852Z,24.47
2022-11-27T21:11:15.316Z,23.83
2022-11-27T21:13:44.155Z,26.33
2022-11-27T21:16:12.164Z,25.70
2022-11-27T21:18:39.385Z,27.13
2022-11-27T21:21:08.254Z,25.17
2022-11-27T21:23:35.965Z,25.23
2022-11-27T21:26:03.266Z,25.87
2022-11-27T21:28:31.045Z,24.23
2022-11-27T21:31:08.533Z,26.10
2022-11-27T21:33:36.221Z,23.90
2022-11-27T21:36:04.004Z,24.93
2022-11-27T21:38:31.426Z,25.23
2022-11-27T21:40:58.676Z,25.37
2022-11-27T21:43:25.995Z,24.73
2022-11-27T21:45:53.880Z,23.53
2022-11-27T21:48:21.417Z,26.67
2022-11-27T21:50:48.783Z,24.53
2022-11-27T21:53:17.503Z,25.17
2022-11-27T21:55:45.033Z,23.03
2022-11-27T21:58:12.552Z,22.60
2022-11-27T22:00:39.967Z,22.00
2022-11-27T22:03:07.145Z,21.83
2022-11-27T22:05:34.332Z,22.90
2022-11-27T22:08:01.644Z,27.57
2022-11-27T22:10:29.111Z,25.00
2022-11-27T22:12:56.417Z,20.97
2022-11-27T22:15:23.726Z,20.87
2022-11-27T22:17:50.957Z,22.97
2022-11-27T22:20:18.323Z,21.33
2022-11-27T22:25:30.930Z,22.13
2022-11-27T22:27:58.697Z,20.43
2022-11-27T22:30:26.334Z,21.47
2022-11-27T22:32:54.341Z,20.77
2022-11-27T22:35:21.947Z,22.60
2022-11-27T22:37:49.310Z,18.47
2022-11-27T22:40:16.760Z,17.70
2022-11-27T22:42:44.102Z,19.90
2022-11-27T22:45:11.395Z,18.30
2022-11-27T22:47:39.483Z,18.63
2022-11-27T22:50:07.333Z,20.20
2022-11-27T22:52:34.751Z,23.47
2022-11-27T22:55:02.183Z,19.57
2022-11-27T22:57:29.390Z,20.17
2022-11-27T22:59:56.653Z,19.83
2022-11-27T23:02:23.947Z,18.90
2022-11-27T23:04:51.894Z,20.10
2022-11-27T23:07:24.797Z,16.83
2022-11-27T23:09:52.646Z,19.73
2022-11-27T23:12:19.898Z,20.43
2022-11-27T23:14:47.103Z,18.13
2022-11-27T23:17:14.374Z,19.43
2022-11-27T23:19:41.839Z,16.90
2022-11-27T23:22:09.094Z,17.37
2022-11-27T23:24:36.406Z,15.87
2022-11-27T23:27:03.593Z,17.27
2022-11-27T23:29:30.839Z,17.27
2022-11-27T23:31:58.058Z,14.60
2022-11-27T23:34:25.387Z,17.27
2022-11-27T23:36:52.741Z,16.47
2022-11-27T23:39:19.957Z,16.10
2022-11-27T23:41:49.186Z,17.07
2022-11-27T23:44:16.539Z,16.93
2022-11-27T23:46:43.965Z,14.00
2022-11-27T23:49:11.300Z,16.17
2022-11-27T23:51:38.527Z,16.80
2022-11-27T23:54:10.182Z,15.17
2022-11-27T23:56:38.254Z,14.93
2022-11-27T23:59:05.514Z,15.77
